Time;durP1;ratioP1;P1;durP2;ratioP2;P2;SDS_P1;SDS_P2;PMS_P1;PMS_P2;Temp;Humidity;BMP_temperature;BMP_pressure;BME280_temperature;BME280_humidity;BME280_pressure;Samples;Min_cycle;Max_cycle;Signal;HPM_P1;HPM_P2
2023/01/13 00:00:23;;;;;;;0.90;0.80;;;13.20;96.40;;;;;;933099;150;27351;-82
2023/01/13 00:02:49;;;;;;;1.13;0.90;;;13.20;96.40;;;;;;933400;153;27484;-82
2023/01/13 00:05:16;;;;;;;1.07;0.62;;;13.20;96.50;;;;;;933400;153;27483;-83
2023/01/13 00:07:43;;;;;;;0.87;0.60;;;13.20;96.30;;;;;;933771;153;27428;-82
2023/01/13 00:10:09;;;;;;;1.47;0.63;;;13.20;96.30;;;;;;933055;150;27340;-82
2023/01/13 00:12:42;;;;;;;1.30;0.80;;;13.20;96.30;;;;;;933414;153;27460;-83
2023/01/13 00:15:08;;;;;;;0.98;0.65;;;13.20;96.20;;;;;;933502;153;27491;-83
2023/01/13 00:17:35;;;;;;;1.47;0.87;;;13.20;96.20;;;;;;934062;153;27340;-83
2023/01/13 00:20:01;;;;;;;1.57;0.62;;;13.20;96.20;;;;;;934266;150;27806;-83
2023/01/13 00:22:28;;;;;;;0.87;0.53;;;13.20;96.20;;;;;;935343;150;27358;-83
2023/01/13 00:24:57;;;;;;;1.30;0.62;;;13.30;96.20;;;;;;934921;150;27425;-83
2023/01/13 00:27:23;;;;;;;1.95;0.80;;;13.30;96.00;;;;;;921969;152;27532;-83
2023/01/13 00:29:47;;;;;;;1.52;0.70;;;13.30;95.90;;;;;;935018;150;27363;-82
2023/01/13 00:32:14;;;;;;;0.62;0.53;;;13.30;95.90;;;;;;934386;150;27374;-83
2023/01/13 00:34:41;;;;;;;0.70;0.70;;;13.30;95.90;;;;;;934267;150;27496;-82
2023/01/13 00:37:11;;;;;;;1.40;0.60;;;13.30;95.80;;;;;;937816;150;27390;-82
2023/01/13 00:39:34;;;;;;;0.70;0.70;;;13.30;95.80;;;;;;936344;150;27292;-82
2023/01/13 00:44:45;;;;;;;0.50;0.50;;;13.40;95.70;;;;;;935261;150;27323;-82
2023/01/13 00:47:12;;;;;;;1.70;0.73;;;13.40;95.70;;;;;;935890;150;27487;-83
2023/01/13 00:49:38;;;;;;;1.43;0.63;;;13.40;95.70;;;;;;934526;150;27400;-83
2023/01/13 00:52:05;;;;;;;1.27;0.60;;;13.40;95.60;;;;;;934791;150;27439;-83
2023/01/13 00:54:31;;;;;;;1.37;0.78;;;13.40;95.40;;;;;;935151;150;27355;-82
2023/01/13 00:56:58;;;;;;;1.17;0.50;;;13.40;95.30;;;;;;935293;150;27501;-83
2023/01/13 00:59:25;;;;;;;1.03;0.60;;;13.40;95.20;;;;;;934418;150;27374;-83
2023/01/13 01:01:51;;;;;;;0.70;0.50;;;13.40;95.20;;;;;;935535;150;27315;-83
2023/01/13 01:04:18;;;;;;;0.55;0.55;;;13.40;95.20;;;;;;934816;150;27861;-82
2023/01/13 01:06:44;;;;;;;2.47;0.62;;;13.50;95.10;;;;;;935019;150;27347;-82
2023/01/13 01:09:14;;;;;;;0.62;0.62;;;13.50;95.10;;;;;;934535;150;27373;-83
2023/01/13 01:11:40;;;;;;;1.05;0.60;;;13.50;95.10;;;;;;934405;150;27493;-83
2023/01/13 01:14:07;;;;;;;2.20;0.90;;;13.50;95.10;;;;;;935265;150;27367;-82
2023/01/13 01:16:34;;;;;;;0.80;0.80;;;13.50;94.90;;;;;;933918;150;27396;-82
2023/01/13 01:19:00;;;;;;;0.70;0.68;;;13.50;94.90;;;;;;934077;150;27402;-83
2023/01/13 01:21:27;;;;;;;1.37;0.53;;;13.50;94.90;;;;;;932660;150;27419;-83
2023/01/13 01:23:53;;;;;;;3.13;0.70;;;13.50;95.00;;;;;;935937;150;27455;-83
2023/01/13 01:26:20;;;;;;;1.12;0.78;;;13.60;94.80;;;;;;932345;153;27868;-83
2023/01/13 01:28:46;;;;;;;0.60;0.60;;;13.60;94.80;;;;;;932426;151;27914;-82
2023/01/13 01:31:19;;;;;;;1.00;0.63;;;13.60;94.80;;;;;;933861;153;27807;-83
2023/01/13 01:33:46;;;;;;;1.03;0.63;;;13.50;94.70;;;;;;933037;151;27460;-82
2023/01/13 01:36:12;;;;;;;1.20;0.63;;;13.50;94.70;;;;;;933339;151;27323;-82
2023/01/13 01:38:39;;;;;;;1.43;0.80;;;13.60;94.70;;;;;;932855;153;27355;-82
2023/01/13 01:41:05;;;;;;;1.02;0.80;;;13.60;94.80;;;;;;934003;153;27496;-82
2023/01/13 01:44:01;;;;;;;1.75;0.90;;;13.60;94.70;;;;;;933751;150;27428;-83
2023/01/13 01:46:26;;;;;;;0.50;0.50;;;13.60;94.60;;;;;;933641;153;27468;-83
2023/01/13 01:48:52;;;;;;;1.35;0.70;;;13.60;94.70;;;;;;931739;153;27390;-82
2023/01/13 01:51:19;;;;;;;0.75;0.68;;;13.60;94.80;;;;;;933697;152;27390;-82
2023/01/13 01:53:46;;;;;;;0.90;0.78;;;13.60;94.70;;;;;;934073;153;27476;-82
2023/01/13 01:56:12;;;;;;;1.13;0.90;;;13.60;94.60;;;;;;932839;153;27449;-82
2023/01/13 01:58:44;;;;;;;0.95;0.90;;;13.60;94.60;;;;;;933617;153;27303;-82
2023/01/13 02:01:08;;;;;;;1.30;0.50;;;13.60;94.50;;;;;;933409;153;27396;-83
2023/01/13 02:03:34;;;;;;;0.62;0.57;;;13.60;94.50;;;;;;934651;153;27370;-83
2023/01/13 02:06:01;;;;;;;1.35;0.53;;;13.60;94.40;;;;;;932471;151;27398;-82
2023/01/13 02:08:28;;;;;;;0.63;0.60;;;13.60;94.30;;;;;;917250;155;27356;-82
2023/01/13 02:10:54;;;;;;;1.40;0.60;;;13.60;94.30;;;;;;914160;153;28035;-82
2023/01/13 02:13:21;;;;;;;2.42;0.75;;;13.60;94.20;;;;;;917217;155;27399;-81
2023/01/13 02:15:57;;;;;;;0.40;0.40;;;13.60;94.20;;;;;;917723;153;27371;-82
2023/01/13 02:18:38;;;;;;;0.82;0.60;;;13.60;94.00;;;;;;932127;151;27658;-81
2023/01/13 02:21:14;;;;;;;0.55;0.55;;;13.60;93.90;;;;;;917524;153;27432;-82
2023/01/13 02:26:50;;;;;;;0.72;0.50;;;13.60;93.90;;;;;;919859;153;27370;-83
2023/01/13 02:32:10;;;;;;;1.12;0.62;;;13.60;93.80;;;;;;920834;153;28523;-82
2023/01/13 02:34:40;;;;;;;0.70;0.60;;;13.60;93.90;;;;;;901289;153;27393;-82
2023/01/13 02:37:18;;;;;;;0.67;0.47;;;13.60;93.90;;;;;;920855;153;27382;-82
2023/01/13 02:39:54;;;;;;;1.37;0.50;;;13.60;93.80;;;;;;921732;153;27492;-83
2023/01/13 02:45:11;;;;;;;1.60;0.67;;;13.60;93.60;;;;;;936265;153;27442;-83
2023/01/13 02:47:38;;;;;;;0.30;0.20;;;13.60;93.70;;;;;;935866;153;27275;-82
2023/01/13 02:50:04;;;;;;;1.17;0.53;;;13.50;93.50;;;;;;936736;153;27451;-82
2023/01/13 02:52:48;;;;;;;1.57;0.70;;;13.50;93.70;;;;;;934141;153;27390;-82
2023/01/13 02:55:15;;;;;;;0.68;0.65;;;13.50;93.80;;;;;;935601;151;27869;-84
2023/01/13 02:57:42;;;;;;;0.40;0.40;;;13.50;93.70;;;;;;936461;153;27335;-83
2023/01/13 03:00:10;;;;;;;0.30;0.30;;;13.50;93.90;;;;;;935036;151;27419;-82
2023/01/13 03:02:37;;;;;;;1.00;0.60;;;13.50;93.90;;;;;;937010;150;27330;-82
2023/01/13 03:05:03;;;;;;;0.33;0.30;;;13.50;93.90;;;;;;935484;151;27398;-83
2023/01/13 03:08:00;;;;;;;1.07;0.70;;;13.50;94.00;;;;;;936379;153;27386;-83
2023/01/13 03:10:48;;;;;;;0.73;0.57;;;13.50;93.90;;;;;;935942;150;27378;-84
2023/01/13 03:13:18;;;;;;;0.40;0.40;;;13.50;93.80;;;;;;935348;153;28779;-78
2023/01/13 03:15:47;;;;;;;0.40;0.40;;;13.50;93.30;;;;;;935918;150;27697;-79
2023/01/13 03:18:13;;;;;;;0.40;0.40;;;13.50;94.00;;;;;;934487;150;27374;-80
2023/01/13 03:20:43;;;;;;;1.55;0.50;;;13.60;93.70;;;;;;934321;153;27479;-80
2023/01/13 03:23:15;;;;;;;0.50;0.50;;;13.50;93.80;;;;;;936340;152;28959;-79
2023/01/13 03:25:42;;;;;;;0.40;0.40;;;13.60;93.80;;;;;;936524;150;27352;-78
2023/01/13 03:28:09;;;;;;;1.17;0.50;;;13.60;93.70;;;;;;936657;153;27358;-81
2023/01/13 03:30:41;;;;;;;0.75;0.50;;;13.60;93.60;;;;;;936232;151;27410;-81
2023/01/13 03:33:07;;;;;;;0.50;0.50;;;13.60;93.70;;;;;;936681;151;29138;-82
2023/01/13 03:35:37;;;;;;;0.83;0.50;;;13.60;93.70;;;;;;931206;151;27559;-81
2023/01/13 03:38:03;;;;;;;0.80;0.50;;;13.60;93.80;;;;;;937671;153;27447;-81
2023/01/13 03:40:30;;;;;;;0.40;0.40;;;13.60;93.70;;;;;;936563;151;27378;-81
2023/01/13 03:45:41;;;;;;;0.60;0.40;;;13.60;93.80;;;;;;938332;153;27504;-81
2023/01/13 03:48:10;;;;;;;0.42;0.42;;;13.60;93.80;;;;;;937776;153;27409;-81
2023/01/13 03:50:45;;;;;;;0.40;0.40;;;13.60;93.80;;;;;;936778;151;27389;-81
2023/01/13 03:53:12;;;;;;;0.60;0.60;;;13.60;93.80;;;;;;936652;153;27347;-81
2023/01/13 03:55:39;;;;;;;0.35;0.35;;;13.60;93.80;;;;;;936429;153;27366;-81
2023/01/13 03:58:14;;;;;;;0.80;0.40;;;13.60;93.70;;;;;;937595;152;27386;-81
2023/01/13 04:00:46;;;;;;;1.07;0.50;;;13.60;93.70;;;;;;937942;153;27363;-81
2023/01/13 04:03:13;;;;;;;1.77;0.63;;;13.60;93.80;;;;;;935450;150;27447;-81
2023/01/13 04:05:40;;;;;;;0.40;0.40;;;13.60;93.80;;;;;;934986;150;27303;-81
2023/01/13 04:08:12;;;;;;;1.63;0.63;;;13.60;93.90;;;;;;935038;153;27382;-81
2023/01/13 04:10:45;;;;;;;0.37;0.33;;;13.60;94.00;;;;;;936264;151;27535;-81
2023/01/13 04:13:11;;;;;;;0.85;0.28;;;13.60;94.00;;;;;;936230;153;27385;-81
2023/01/13 04:15:38;;;;;;;0.60;0.60;;;13.60;94.00;;;;;;937714;153;27333;-81
2023/01/13 04:18:13;;;;;;;0.47;0.45;;;13.60;93.90;;;;;;936442;153;27465;-81
2023/01/13 04:20:40;;;;;;;0.42;0.42;;;13.60;94.00;;;;;;924661;151;27373;-81
2023/01/13 04:23:06;;;;;;;0.30;0.30;;;13.60;94.10;;;;;;935816;150;27391;-81
2023/01/13 04:25:33;;;;;;;0.45;0.40;;;13.60;94.00;;;;;;934611;150;27399;-81
2023/01/13 04:27:59;;;;;;;1.73;0.50;;;13.60;94.00;;;;;;935101;150;27460;-81
2023/01/13 04:30:26;;;;;;;0.45;0.45;;;13.70;94.00;;;;;;939245;150;27947;-81
2023/01/13 04:32:52;;;;;;;0.70;0.70;;;13.70;94.00;;;;;;939815;150;27327;-81
2023/01/13 04:35:19;;;;;;;0.80;0.72;;;13.60;93.90;;;;;;934416;150;27394;-81
2023/01/13 04:37:46;;;;;;;0.55;0.55;;;13.60;93.90;;;;;;933952;150;27410;-81
2023/01/13 04:40:12;;;;;;;0.98;0.72;;;13.60;93.80;;;;;;934488;150;27406;-81
2023/01/13 04:42:39;;;;;;;0.50;0.50;;;13.60;93.80;;;;;;906968;155;28662;-81
2023/01/13 04:45:05;;;;;;;0.82;0.53;;;13.60;93.80;;;;;;933025;150;27697;-81
2023/01/13 04:47:32;;;;;;;0.72;0.72;;;13.60;93.80;;;;;;933981;150;27416;-81
2023/01/13 04:49:59;;;;;;;0.50;0.50;;;13.60;93.70;;;;;;933888;150;27527;-81
2023/01/13 04:52:25;;;;;;;0.60;0.60;;;13.60;93.70;;;;;;934661;150;27830;-81
2023/01/13 04:54:52;;;;;;;0.93;0.73;;;13.50;93.70;;;;;;934799;150;27490;-81
2023/01/13 04:57:18;;;;;;;0.90;0.57;;;13.60;93.80;;;;;;933785;150;27463;-81
2023/01/13 04:59:45;;;;;;;0.50;0.47;;;13.60;93.80;;;;;;934296;150;27385;-81
2023/01/13 05:02:18;;;;;;;0.40;0.40;;;13.50;93.80;;;;;;934095;150;27483;-81
2023/01/13 05:04:38;;;;;;;0.55;0.55;;;13.60;93.90;;;;;;933233;150;28561;-81
2023/01/13 05:07:05;;;;;;;0.60;0.60;;;13.50;93.90;;;;;;934384;150;27386;-81
2023/01/13 05:09:31;;;;;;;0.68;0.62;;;13.50;93.90;;;;;;934841;150;27901;-81
2023/01/13 05:17:27;;;;;;;0.47;0.47;;;13.50;93.90;;;;;;935030;150;27531;-81
2023/01/13 05:19:54;;;;;;;0.40;0.40;;;13.50;93.60;;;;;;934231;150;27360;-81
2023/01/13 05:25:20;;;;;;;0.72;0.50;;;13.50;93.80;;;;;;935193;150;27512;-82
2023/01/13 05:27:49;;;;;;;1.37;0.40;;;13.50;94.10;;;;;;934692;150;27443;-82
2023/01/13 05:30:16;;;;;;;0.53;0.50;;;13.50;94.10;;;;;;933858;150;27335;-82
2023/01/13 05:32:42;;;;;;;0.77;0.50;;;13.50;94.40;;;;;;935125;150;27358;-82
2023/01/13 05:35:09;;;;;;;0.40;0.30;;;13.60;94.60;;;;;;934680;150;27467;-82
2023/01/13 05:37:36;;;;;;;0.90;0.37;;;13.60;94.80;;;;;;934879;150;27374;-82
2023/01/13 05:45:31;;;;;;;1.03;0.50;;;13.50;95.30;;;;;;933548;150;27479;-82
2023/01/13 05:47:58;;;;;;;0.30;0.30;;;13.50;95.40;;;;;;935050;150;27408;-82
2023/01/13 05:50:24;;;;;;;0.53;0.47;;;13.50;95.50;;;;;;934910;150;27299;-82
2023/01/13 05:52:51;;;;;;;0.93;0.50;;;13.40;95.60;;;;;;934633;150;27381;-82
2023/01/13 05:55:18;;;;;;;0.50;0.50;;;13.40;95.90;;;;;;935428;150;27477;-82
2023/01/13 05:57:44;;;;;;;1.23;1.13;;;13.30;96.20;;;;;;935366;150;27558;-82
2023/01/13 06:00:11;;;;;;;1.00;0.90;;;13.30;96.60;;;;;;934230;150;27359;-82
2023/01/13 06:02:37;;;;;;;1.07;0.80;;;13.30;96.90;;;;;;934164;150;27403;-82
2023/01/13 06:05:04;;;;;;;1.50;0.70;;;13.20;97.10;;;;;;935039;150;27319;-82
2023/01/13 06:07:31;;;;;;;0.30;0.30;;;13.20;97.10;;;;;;934668;150;27889;-82
2023/01/13 06:09:57;;;;;;;0.57;0.53;;;13.10;96.30;;;;;;934060;150;27705;-82
2023/01/13 06:12:24;;;;;;;0.20;0.20;;;13.00;95.80;;;;;;935564;150;27346;-81
2023/01/13 06:14:50;;;;;;;0.37;0.37;;;12.90;95.40;;;;;;934469;150;27390;-81
2023/01/13 06:17:17;;;;;;;0.40;0.40;;;12.80;95.50;;;;;;934755;150;27400;-81
2023/01/13 06:19:43;;;;;;;0.40;0.30;;;12.70;95.40;;;;;;934351;150;27351;-81
2023/01/13 06:22:13;;;;;;;0.53;0.40;;;12.50;95.50;;;;;;935055;150;27312;-81
2023/01/13 06:24:39;;;;;;;0.97;0.50;;;12.40;95.80;;;;;;933583;150;27461;-82
2023/01/13 06:27:06;;;;;;;0.40;0.40;;;12.30;96.10;;;;;;932317;151;27382;-81
2023/01/13 06:29:32;;;;;;;1.13;0.67;;;12.20;96.30;;;;;;936630;153;27381;-81
2023/01/13 06:31:59;;;;;;;0.60;0.40;;;12.10;96.70;;;;;;936466;150;27377;-81
2023/01/13 06:34:26;;;;;;;0.30;0.30;;;12.00;97.00;;;;;;936003;153;27476;-81
2023/01/13 06:36:52;;;;;;;1.27;0.47;;;11.90;97.40;;;;;;937323;150;27428;-81
2023/01/13 06:39:19;;;;;;;1.53;0.67;;;11.80;97.80;;;;;;936946;153;27387;-81
2023/01/13 06:44:30;;;;;;;2.07;0.60;;;11.70;98.60;;;;;;934442;153;27375;-81
2023/01/13 06:46:57;;;;;;;0.40;0.40;;;11.70;98.80;;;;;;934420;151;27441;-81
2023/01/13 06:49:23;;;;;;;0.40;0.40;;;11.60;99.20;;;;;;933476;151;27406;-81
2023/01/13 06:51:50;;;;;;;0.30;0.30;;;11.60;99.50;;;;;;918209;153;27383;-82
2023/01/13 06:54:17;;;;;;;0.60;0.60;;;11.60;99.80;;;;;;932437;150;27277;-82
2023/01/13 06:56:43;;;;;;;0.30;0.30;;;11.60;99.90;;;;;;918237;153;27466;-81
2023/01/13 06:59:10;;;;;;;0.40;0.40;;;11.50;99.90;;;;;;933834;151;27378;-81
2023/01/13 07:01:36;;;;;;;1.07;0.50;;;11.50;99.90;;;;;;933618;151;27569;-81
2023/01/13 07:04:03;;;;;;;0.70;0.70;;;11.50;99.90;;;;;;933814;150;27383;-83
2023/01/13 07:06:29;;;;;;;0.60;0.60;;;11.50;99.90;;;;;;934315;151;27448;-83
2023/01/13 07:08:56;;;;;;;0.50;0.50;;;11.50;99.90;;;;;;934150;151;27375;-82
2023/01/13 07:11:23;;;;;;;1.77;0.97;;;11.50;99.90;;;;;;933948;151;27466;-82
2023/01/13 07:16:35;;;;;;;0.70;0.70;;;11.50;99.90;;;;;;918174;153;27569;-82
2023/01/13 07:19:01;;;;;;;0.90;0.50;;;11.50;99.90;;;;;;917165;153;27375;-81
2023/01/13 07:21:28;;;;;;;4.47;0.50;;;11.40;99.90;;;;;;918727;153;27370;-81
2023/01/13 07:23:54;;;;;;;1.20;0.47;;;11.40;99.90;;;;;;921637;153;27498;-81
2023/01/13 07:26:21;;;;;;;1.23;0.53;;;11.40;99.90;;;;;;921102;153;27377;-81
2023/01/13 07:28:47;;;;;;;0.30;0.30;;;11.40;99.90;;;;;;939575;148;27289;-81
2023/01/13 07:31:14;;;;;;;0.50;0.50;;;11.30;99.90;;;;;;940114;148;27245;-81
2023/01/13 07:33:41;;;;;;;0.97;0.67;;;11.30;99.90;;;;;;936558;151;27247;-82
2023/01/13 07:36:07;;;;;;;0.53;0.53;;;11.30;99.90;;;;;;936929;152;27252;-82
2023/01/13 07:38:34;;;;;;;1.00;0.70;;;11.30;99.90;;;;;;937388;150;27287;-82
2023/01/13 07:43:33;;;;;;;1.00;0.60;;;11.20;99.90;;;;;;920715;150;27361;-81
2023/01/13 07:45:59;;;;;;;1.77;1.67;;;11.20;99.90;;;;;;936149;150;27340;-82
2023/01/13 07:48:26;;;;;;;1.77;0.70;;;11.20;99.90;;;;;;936803;150;27705;-81
2023/01/13 07:50:52;;;;;;;0.50;0.50;;;11.20;99.90;;;;;;937263;150;27347;-81
2023/01/13 07:53:19;;;;;;;0.70;0.50;;;11.20;99.90;;;;;;936776;152;27362;-81
2023/01/13 07:55:46;;;;;;;1.13;0.57;;;11.20;99.90;;;;;;936712;153;27370;-81
2023/01/13 07:58:12;;;;;;;0.40;0.40;;;11.20;99.90;;;;;;936041;150;27346;-81
2023/01/13 08:00:39;;;;;;;0.70;0.70;;;11.20;99.90;;;;;;936410;150;28465;-81
2023/01/13 08:03:05;;;;;;;1.17;0.90;;;11.20;99.90;;;;;;936707;150;27213;-81
2023/01/13 08:05:32;;;;;;;1.00;1.00;;;11.10;99.90;;;;;;936391;150;27249;-81
2023/01/13 08:07:58;;;;;;;0.60;0.60;;;11.10;99.90;;;;;;935934;150;27297;-81
2023/01/13 08:10:25;;;;;;;1.43;1.30;;;11.10;99.90;;;;;;936849;150;27311;-81
2023/01/13 08:15:36;;;;;;;1.17;1.17;;;11.00;99.90;;;;;;936538;150;28106;-82
2023/01/13 08:18:03;;;;;;;1.03;1.03;;;11.00;99.90;;;;;;936508;152;27373;-81
2023/01/13 08:20:30;;;;;;;0.70;0.70;;;11.00;99.90;;;;;;937619;150;27369;-81
2023/01/13 08:22:56;;;;;;;2.20;0.80;;;11.00;99.90;;;;;;936858;150;27287;-81
2023/01/13 08:25:23;;;;;;;3.03;2.23;;;11.00;99.90;;;;;;936469;150;27360;-81
2023/01/13 08:27:49;;;;;;;2.63;1.97;;;11.00;99.90;;;;;;935157;150;27237;-81
2023/01/13 08:30:16;;;;;;;1.77;1.60;;;11.00;99.90;;;;;;933268;153;27984;-81
2023/01/13 08:32:45;;;;;;;2.30;2.10;;;11.10;99.90;;;;;;933818;153;27390;-81
2023/01/13 08:35:12;;;;;;;1.60;1.50;;;11.10;99.90;;;;;;932797;151;27504;-81
2023/01/13 08:37:39;;;;;;;1.70;1.60;;;11.10;99.90;;;;;;932783;150;27347;-82
2023/01/13 08:40:05;;;;;;;2.03;1.87;;;11.10;99.90;;;;;;933025;153;27343;-82
2023/01/13 08:42:32;;;;;;;1.47;1.37;;;11.20;99.90;;;;;;933462;153;27407;-82
2023/01/13 08:44:58;;;;;;;1.10;1.00;;;11.20;99.90;;;;;;932676;150;28010;-82
2023/01/13 08:47:25;;;;;;;0.83;0.83;;;11.20;99.90;;;;;;933649;153;27370;-82
2023/01/13 08:49:52;;;;;;;1.80;0.90;;;11.20;99.90;;;;;;933582;153;27696;-82
2023/01/13 08:52:18;;;;;;;0.70;0.70;;;11.30;99.90;;;;;;934524;153;27480;-82
2023/01/13 08:54:45;;;;;;;1.77;0.90;;;11.30;99.90;;;;;;934175;153;27480;-82
2023/01/13 08:57:11;;;;;;;1.07;0.90;;;11.30;99.90;;;;;;933573;153;27331;-82
2023/01/13 08:59:38;;;;;;;2.10;1.30;;;11.40;99.90;;;;;;932964;152;27392;-82
2023/01/13 09:02:05;;;;;;;1.47;1.13;;;11.40;99.90;;;;;;933440;153;27812;-82
2023/01/13 09:04:31;;;;;;;1.40;1.20;;;11.40;99.90;;;;;;930991;153;27386;-82
2023/01/13 09:06:58;;;;;;;0.93;0.73;;;11.50;99.90;;;;;;932819;150;27358;-82
2023/01/13 09:09:26;;;;;;;2.30;1.77;;;11.50;99.90;;;;;;933998;150;27342;-82
2023/01/13 09:14:36;;;;;;;1.10;1.00;;;11.60;99.90;;;;;;933820;153;27379;-82
2023/01/13 09:17:02;;;;;;;1.50;0.90;;;11.60;99.90;;;;;;934098;153;27471;-81
2023/01/13 09:19:29;;;;;;;1.20;1.10;;;11.70;99.90;;;;;;934149;153;27978;-82
2023/01/13 09:21:55;;;;;;;0.90;0.90;;;11.80;99.90;;;;;;934400;153;27475;-82
2023/01/13 09:24:22;;;;;;;0.80;0.80;;;11.80;99.90;;;;;;935490;150;27745;-81
2023/01/13 09:26:49;;;;;;;1.73;0.80;;;11.90;99.90;;;;;;933953;153;27457;-82
2023/01/13 09:29:15;;;;;;;2.03;0.90;;;12.00;99.90;;;;;;934168;153;27363;-82
2023/01/13 09:31:42;;;;;;;1.93;0.90;;;12.10;99.90;;;;;;933970;152;27871;-82
2023/01/13 09:36:53;;;;;;;0.90;0.90;;;12.20;99.90;;;;;;932954;151;27583;-82
2023/01/13 09:39:21;;;;;;;1.23;0.73;;;12.30;99.90;;;;;;933863;153;27398;-82
2023/01/13 09:44:34;;;;;;;3.17;0.90;;;12.30;99.80;;;;;;920353;153;27462;-81
2023/01/13 09:47:00;;;;;;;1.63;0.70;;;12.30;99.50;;;;;;928131;150;27371;-82
2023/01/13 09:49:39;;;;;;;1.30;1.00;;;12.30;99.60;;;;;;933112;150;27387;-82
2023/01/13 09:52:13;;;;;;;3.10;0.90;;;12.30;99.70;;;;;;933142;150;28842;-82
2023/01/13 09:54:53;;;;;;;2.53;1.57;;;12.30;99.80;;;;;;932232;150;27367;-82
2023/01/13 09:57:20;;;;;;;2.10;1.00;;;12.30;99.70;;;;;;933099;153;27358;-82
2023/01/13 09:59:46;;;;;;;1.73;0.80;;;12.30;99.60;;;;;;934388;151;27872;-82
2023/01/13 10:02:18;;;;;;;0.93;0.70;;;12.30;99.80;;;;;;934473;153;27468;-82
2023/01/13 10:04:45;;;;;;;1.37;0.73;;;12.30;99.60;;;;;;933701;152;27344;-82
2023/01/13 10:07:11;;;;;;;0.83;0.77;;;12.40;99.60;;;;;;932891;151;27778;-82
2023/01/13 10:09:38;;;;;;;0.73;0.57;;;12.50;99.60;;;;;;934329;153;27395;-82
2023/01/13 10:14:52;;;;;;;3.20;0.93;;;12.60;99.00;;;;;;925558;152;27347;-82
2023/01/13 10:17:37;;;;;;;1.30;0.90;;;12.80;98.70;;;;;;918518;153;27368;-82
2023/01/13 10:20:27;;;;;;;1.17;0.90;;;12.80;98.30;;;;;;897063;158;28002;-82
2023/01/13 10:23:02;;;;;;;1.30;0.87;;;12.90;97.70;;;;;;873411;164;27640;-82
2023/01/13 10:26:00;;;;;;;2.07;0.90;;;13.00;97.60;;;;;;915801;153;27401;-82
2023/01/13 10:28:26;;;;;;;2.20;0.97;;;13.00;97.80;;;;;;934114;152;27305;-83
2023/01/13 10:30:53;;;;;;;2.93;1.30;;;13.20;97.60;;;;;;934576;151;27332;-82
2023/01/13 10:33:23;;;;;;;1.03;0.63;;;13.30;97.90;;;;;;934963;151;27305;-82
2023/01/13 10:35:52;;;;;;;1.82;0.70;;;13.40;97.80;;;;;;933978;153;27391;-83
2023/01/13 10:38:21;;;;;;;1.30;0.60;;;13.50;97.60;;;;;;934688;151;27261;-83
2023/01/13 10:40:48;;;;;;;1.50;0.75;;;13.70;97.50;;;;;;934160;153;27297;-83
2023/01/13 10:43:14;;;;;;;1.10;0.70;;;13.80;96.60;;;;;;933667;152;27280;-82
2023/01/13 10:45:41;;;;;;;1.22;0.78;;;13.90;95.70;;;;;;934119;151;27319;-82
2023/01/13 10:48:07;;;;;;;2.20;1.03;;;14.00;94.70;;;;;;933812;151;27242;-82
2023/01/13 10:50:34;;;;;;;1.70;1.10;;;14.10;94.10;;;;;;933601;150;27289;-82
2023/01/13 10:53:16;;;;;;;1.52;0.75;;;14.10;93.80;;;;;;934391;150;27333;-82
2023/01/13 10:55:42;;;;;;;1.00;0.73;;;14.10;93.30;;;;;;933884;153;27264;-82
2023/01/13 10:58:18;;;;;;;2.02;1.05;;;14.10;92.90;;;;;;934005;150;27308;-82
2023/01/13 11:00:44;;;;;;;1.27;0.60;;;14.10;92.80;;;;;;933752;153;27358;-83
2023/01/13 11:03:20;;;;;;;2.93;1.07;;;14.10;92.60;;;;;;933559;152;27304;-82
2023/01/13 11:05:56;;;;;;;3.80;1.22;;;14.10;92.20;;;;;;932535;151;27265;-82
2023/01/13 11:08:22;;;;;;;3.52;1.10;;;14.10;92.00;;;;;;933663;153;27302;-83
2023/01/13 11:10:49;;;;;;;3.08;1.40;;;14.20;91.00;;;;;;934083;152;27286;-83
2023/01/13 11:13:28;;;;;;;1.80;1.00;;;14.20;91.30;;;;;;934470;153;27760;-83
2023/01/13 11:16:00;;;;;;;3.58;1.00;;;14.20;91.40;;;;;;933900;152;27340;-83
2023/01/13 11:19:01;;;;;;;2.55;1.00;;;14.30;91.80;;;;;;933842;153;27497;-83
2023/01/13 11:21:20;;;;;;;2.98;1.10;;;14.30;91.40;;;;;;933801;151;27250;-83
2023/01/13 11:23:47;;;;;;;1.40;1.10;;;14.40;90.50;;;;;;933379;150;27362;-83
2023/01/13 11:26:19;;;;;;;2.67;1.25;;;14.50;90.30;;;;;;933948;153;27378;-83
2023/01/13 11:28:48;;;;;;;2.95;1.30;;;14.50;90.20;;;;;;936743;150;27414;-83
2023/01/13 11:31:33;;;;;;;5.05;1.57;;;14.50;89.00;;;;;;937305;150;27348;-83
2023/01/13 11:34:21;;;;;;;2.12;1.07;;;14.50;87.60;;;;;;937367;150;27489;-82
2023/01/13 11:36:50;;;;;;;3.50;1.07;;;14.40;86.60;;;;;;937278;152;27835;-83
2023/01/13 11:39:52;;;;;;;3.67;1.10;;;14.40;85.40;;;;;;937337;152;27433;-83
2023/01/13 11:42:29;;;;;;;3.23;1.00;;;14.30;85.10;;;;;;935947;150;27387;-83
2023/01/13 11:45:05;;;;;;;2.57;1.47;;;14.10;84.50;;;;;;936821;152;27436;-82
2023/01/13 11:47:31;;;;;;;3.30;1.23;;;14.00;84.20;;;;;;936389;150;27474;-83
2023/01/13 11:49:58;;;;;;;1.43;1.03;;;13.90;84.70;;;;;;937655;150;27473;-83
2023/01/13 11:52:37;;;;;;;4.90;1.20;;;13.80;84.90;;;;;;937866;152;27434;-83
2023/01/13 11:55:09;;;;;;;2.17;1.03;;;13.80;85.30;;;;;;938976;150;27495;-83
2023/01/13 11:57:51;;;;;;;2.30;1.10;;;13.70;85.70;;;;;;918466;153;27353;-83
2023/01/13 12:00:20;;;;;;;2.33;1.00;;;13.70;86.10;;;;;;921300;155;27431;-83
2023/01/13 12:03:20;;;;;;;3.20;1.10;;;13.60;85.70;;;;;;921811;155;27333;-82
2023/01/13 12:06:02;;;;;;;4.03;1.37;;;13.60;85.80;;;;;;919409;153;27879;-83
2023/01/13 12:08:40;;;;;;;4.07;1.63;;;13.60;85.50;;;;;;936434;151;27425;-82
2023/01/13 12:11:28;;;;;;;4.28;1.17;;;13.60;85.20;;;;;;936810;152;27478;-83
2023/01/13 12:13:58;;;;;;;2.37;1.30;;;13.50;85.40;;;;;;936488;152;27482;-83
2023/01/13 12:16:30;;;;;;;2.83;1.43;;;13.60;85.80;;;;;;936447;150;27351;-82
2023/01/13 12:18:59;;;;;;;3.80;1.43;;;13.70;86.00;;;;;;937589;152;27692;-83
2023/01/13 12:21:26;;;;;;;4.50;1.65;;;13.80;85.60;;;;;;937186;152;27396;-83
2023/01/13 12:24:01;;;;;;;5.72;1.85;;;13.90;84.90;;;;;;937482;152;28363;-82
2023/01/13 12:26:28;;;;;;;2.27;1.13;;;13.90;84.40;;;;;;920308;155;27413;-83
2023/01/13 12:28:57;;;;;;;3.83;1.30;;;14.10;83.90;;;;;;936821;150;27413;-83
2023/01/13 12:31:24;;;;;;;4.05;1.45;;;14.10;83.40;;;;;;934417;152;27419;-83
2023/01/13 12:34:15;;;;;;;4.05;1.62;;;14.10;83.10;;;;;;921103;153;27385;-83
2023/01/13 12:36:51;;;;;;;4.55;1.30;;;14.20;82.60;;;;;;936218;150;27389;-82
2023/01/13 12:39:29;;;;;;;4.27;1.90;;;14.20;81.90;;;;;;925686;151;27466;-82
2023/01/13 12:44:59;;;;;;;2.80;1.32;;;14.20;81.30;;;;;;887174;159;27625;-82
2023/01/13 12:47:37;;;;;;;4.10;1.70;;;14.20;81.10;;;;;;917697;152;27471;-82
2023/01/13 12:50:25;;;;;;;4.93;1.30;;;14.20;80.70;;;;;;933559;151;27484;-82
2023/01/13 12:52:54;;;;;;;3.87;1.25;;;14.20;80.30;;;;;;933990;151;27506;-83
2023/01/13 12:55:20;;;;;;;3.57;1.30;;;14.20;80.70;;;;;;933835;151;27448;-83
2023/01/13 12:58:05;;;;;;;3.13;1.60;;;14.10;80.30;;;;;;934765;151;27392;-82
2023/01/13 13:00:37;;;;;;;3.47;1.77;;;14.00;80.00;;;;;;934879;151;27361;-82
2023/01/13 13:03:11;;;;;;;2.75;1.35;;;13.90;80.50;;;;;;934457;153;27375;-82
2023/01/13 13:05:55;;;;;;;5.07;1.40;;;13.70;80.80;;;;;;934912;153;27866;-82
2023/01/13 13:08:40;;;;;;;3.87;1.40;;;13.50;81.30;;;;;;935122;150;27388;-82
2023/01/13 13:13:57;;;;;;;4.23;1.63;;;13.20;82.60;;;;;;934838;151;27436;-82
2023/01/13 13:16:28;;;;;;;3.47;1.20;;;13.00;83.70;;;;;;934593;151;27416;-82
2023/01/13 13:18:53;;;;;;;2.27;1.17;;;12.90;84.40;;;;;;920743;155;27489;-82
2023/01/13 13:21:20;;;;;;;4.60;1.93;;;12.80;85.00;;;;;;934868;152;27392;-82
2023/01/13 13:23:52;;;;;;;2.80;1.47;;;12.70;85.60;;;;;;920791;153;27456;-82
2023/01/13 13:26:23;;;;;;;3.83;2.17;;;12.70;86.00;;;;;;937133;152;27407;-82
2023/01/13 13:29:06;;;;;;;3.87;1.80;;;12.60;85.80;;;;;;936739;152;27441;-82
2023/01/13 13:31:51;;;;;;;6.37;1.73;;;12.60;86.80;;;;;;936898;150;27498;-84
2023/01/13 13:34:27;;;;;;;3.43;1.37;;;12.60;86.80;;;;;;935813;153;27373;-84
2023/01/13 13:36:56;;;;;;;3.33;1.60;;;12.60;86.70;;;;;;936612;152;27766;-83
2023/01/13 13:47:43;;;;;;;3.08;1.70;;;12.90;84.90;;;;;;938431;150;27530;-82
2023/01/13 13:50:16;;;;;;;3.33;1.40;;;13.00;84.00;;;;;;938622;152;27323;-82
2023/01/13 13:52:50;;;;;;;2.90;1.43;;;13.10;83.40;;;;;;939558;150;27385;-82
2023/01/13 13:55:14;;;;;;;5.60;1.90;;;13.10;83.00;;;;;;939620;150;27354;-82
2023/01/13 13:57:41;;;;;;;5.60;1.67;;;13.20;82.80;;;;;;938189;150;27391;-82
2023/01/13 14:00:07;;;;;;;4.33;1.70;;;13.20;82.60;;;;;;921582;153;27376;-82
2023/01/13 14:02:34;;;;;;;3.53;1.23;;;13.20;83.00;;;;;;901481;155;27447;-82